createdAt,value
2019-04-04T00:01:39.674Z,3.00
2019-04-04T00:04:10.053Z,3.00
2019-04-04T00:06:40.550Z,3.00
2019-04-04T00:09:11.231Z,3.00
2019-04-04T00:11:41.632Z,2.80
2019-04-04T00:14:14.778Z,2.80
2019-04-04T00:16:51.735Z,2.80
2019-04-04T00:19:29.932Z,2.80
2019-04-04T00:22:01.056Z,2.90
2019-04-04T00:24:31.476Z,2.90
2019-04-04T00:27:01.856Z,2.80
2019-04-04T00:29:32.307Z,2.80
2019-04-04T00:32:02.684Z,2.60
2019-04-04T00:34:33.109Z,2.60
2019-04-04T00:37:04.775Z,2.60
2019-04-04T00:39:35.744Z,2.70
2019-04-04T00:42:06.157Z,2.80
2019-04-04T00:44:36.579Z,2.80
2019-04-04T00:47:06.953Z,2.60
2019-04-04T00:49:37.336Z,2.50
2019-04-04T00:52:09.932Z,2.60
2019-04-04T00:54:39.895Z,2.80
2019-04-04T00:57:10.367Z,2.70
2019-04-04T00:59:40.740Z,2.60
2019-04-04T01:02:11.224Z,2.60
2019-04-04T01:04:41.649Z,2.60
2019-04-04T01:07:12.256Z,2.60
2019-04-04T01:09:45.875Z,2.50
2019-04-04T01:12:17.706Z,2.50
2019-04-04T01:14:48.090Z,2.50
2019-04-04T01:17:18.512Z,2.70
2019-04-04T01:19:49.775Z,2.60
2019-04-04T01:22:20.356Z,2.40
2019-04-04T01:24:50.727Z,2.30
2019-04-04T01:27:21.150Z,2.10
2019-04-04T01:29:51.529Z,1.90
2019-04-04T01:32:21.951Z,1.70
2019-04-04T01:34:52.763Z,1.60
2019-04-04T01:37:25.173Z,1.70
2019-04-04T01:39:55.563Z,1.60
2019-04-04T01:42:26.066Z,1.50
2019-04-04T01:44:56.499Z,1.50
2019-04-04T01:47:26.996Z,1.40
2019-04-04T01:49:57.426Z,1.40
2019-04-04T01:52:28.606Z,1.50
2019-04-04T01:55:03.018Z,1.50
2019-04-04T01:57:31.629Z,1.60
2019-04-04T02:00:02.042Z,1.60
2019-04-04T02:02:32.499Z,1.60
2019-04-04T02:05:02.991Z,1.60
2019-04-04T02:07:33.388Z,1.50
2019-04-04T02:10:05.477Z,1.50
2019-04-04T02:12:38.582Z,1.50
2019-04-04T02:15:13.807Z,1.50
2019-04-04T02:17:42.740Z,1.50
2019-04-04T02:20:13.219Z,1.40
2019-04-04T02:22:43.611Z,1.50
2019-04-04T02:25:14.234Z,1.40
2019-04-04T02:27:44.662Z,1.40
2019-04-04T02:30:16.354Z,1.40
2019-04-04T02:32:47.192Z,1.60
2019-04-04T02:35:17.632Z,1.80
2019-04-04T02:37:48.012Z,1.70
2019-04-04T02:40:18.594Z,1.60
2019-04-04T02:42:49.005Z,1.50
2019-04-04T02:45:19.515Z,1.40
2019-04-04T02:47:51.264Z,1.30
2019-04-04T02:50:21.992Z,1.10
2019-04-04T02:52:52.363Z,1.00
2019-04-04T02:55:22.781Z,0.90
2019-04-04T02:57:53.154Z,0.90
2019-04-04T03:00:26.283Z,0.80
2019-04-04T03:02:55.692Z,1.00
2019-04-04T03:05:26.224Z,1.10
2019-04-04T03:07:56.587Z,1.30
2019-04-04T03:10:27.217Z,1.40
2019-04-04T03:12:58.648Z,1.40
2019-04-04T03:15:29.724Z,1.40
2019-04-04T03:18:04.175Z,1.50
2019-04-04T03:20:32.324Z,1.60
2019-04-04T03:23:02.702Z,1.80
2019-04-04T03:25:33.301Z,1.80
2019-04-04T03:28:03.830Z,1.90
2019-04-04T03:30:34.335Z,2.30
2019-04-04T03:33:05.890Z,2.50
2019-04-04T03:35:36.217Z,2.70
2019-04-04T03:38:06.675Z,2.80
2019-04-04T03:40:37.092Z,2.90
2019-04-04T03:43:07.562Z,3.70
2019-04-04T03:46:00.167Z,4.50
2019-04-04T03:48:31.894Z,4.80
2019-04-04T03:51:04.639Z,4.90
2019-04-04T03:53:34.462Z,5.80
2019-04-04T03:56:04.896Z,7.00
2019-04-04T03:58:36.026Z,7.10
2019-04-04T04:01:06.443Z,7.90
2019-04-04T04:03:36.908Z,7.90
2019-04-04T04:06:08.988Z,8.90
2019-04-04T04:08:39.298Z,9.70
2019-04-04T04:11:09.809Z,10.60
2019-04-04T04:13:40.216Z,10.40
2019-04-04T04:16:11.052Z,10.40
2019-04-04T04:18:41.555Z,10.10
2019-04-04T04:21:12.079Z,10.20
2019-04-04T04:23:42.798Z,9.30
2019-04-04T04:28:14.594Z,9.20
2019-04-04T04:29:22.294Z,9.00
2019-04-04T04:32:06.559Z,9.60
2019-04-04T04:34:38.760Z,8.80
2019-04-04T04:37:11.159Z,9.20
2019-04-04T04:39:41.546Z,10.20
2019-04-04T04:42:21.503Z,11.20
2019-04-04T04:44:52.434Z,10.20
2019-04-04T04:47:27.108Z,9.60
2019-04-04T04:50:00.776Z,9.70
2019-04-04T04:52:47.974Z,10.00
2019-04-04T04:55:28.889Z,9.60
2019-04-04T04:58:00.151Z,10.60
2019-04-04T05:00:30.636Z,10.40
2019-04-04T05:03:01.440Z,10.00
2019-04-04T05:05:33.578Z,9.60
2019-04-04T05:08:06.073Z,9.40
2019-04-04T05:10:39.336Z,9.10
2019-04-04T05:13:14.505Z,9.60
2019-04-04T05:15:46.453Z,9.80
2019-04-04T05:18:18.377Z,10.10
2019-04-04T05:20:48.807Z,10.90
2019-04-04T05:23:28.190Z,10.80
2019-04-04T05:26:02.336Z,10.40
2019-04-04T05:28:35.827Z,10.80
2019-04-04T05:31:07.345Z,11.50
2019-04-04T05:33:46.640Z,11.20
2019-04-04T05:36:21.319Z,11.60
2019-04-04T05:38:56.262Z,11.10
2019-04-04T05:41:27.368Z,11.60
2019-04-04T05:43:58.559Z,11.70
2019-04-04T05:46:32.783Z,12.10
2019-04-04T05:49:07.841Z,11.80
2019-04-04T05:51:37.365Z,12.90
2019-04-04T05:54:08.395Z,13.30
2019-04-04T05:56:39.369Z,13.90
2019-04-04T05:59:09.879Z,14.30
2019-04-04T06:01:49.348Z,14.40
2019-04-04T06:04:20.263Z,15.10
2019-04-04T06:06:50.819Z,13.60
2019-04-04T06:09:21.199Z,13.80
2019-04-04T06:11:55.733Z,15.30
2019-04-04T06:14:30.682Z,15.80
2019-04-04T06:17:01.182Z,15.30
2019-04-04T06:19:36.013Z,14.50
2019-04-04T06:22:06.496Z,13.70
2019-04-04T06:24:37.111Z,11.80
2019-04-04T06:27:09.131Z,10.80
2019-04-04T06:29:39.823Z,9.40
2019-04-04T06:32:10.209Z,8.90
2019-04-04T06:34:44.953Z,8.20
2019-04-04T06:37:18.058Z,7.70
2019-04-04T06:39:54.184Z,7.20
2019-04-04T06:42:24.603Z,7.10
2019-04-04T06:44:58.625Z,7.10
2019-04-04T06:47:32.369Z,7.20
2019-04-04T06:50:02.350Z,7.40
2019-04-04T06:52:32.701Z,7.50
2019-04-04T06:55:03.117Z,7.80
2019-04-04T06:57:34.209Z,8.10
2019-04-04T07:00:09.851Z,8.30
2019-04-04T07:02:40.332Z,8.60
2019-04-04T07:05:11.044Z,8.80
2019-04-04T07:07:43.849Z,8.90
2019-04-04T07:10:13.956Z,8.90
2019-04-04T07:12:44.964Z,8.90
2019-04-04T07:15:15.900Z,8.80
2019-04-04T07:17:46.943Z,8.60
2019-04-04T07:20:17.576Z,8.50
2019-04-04T07:22:49.500Z,8.40
2019-04-04T07:25:20.142Z,8.30
2019-04-04T07:27:50.507Z,8.40
2019-04-04T07:30:22.699Z,8.50
2019-04-04T07:32:53.080Z,8.50
2019-04-04T07:35:23.587Z,8.60
2019-04-04T07:37:57.250Z,8.70
2019-04-04T07:40:26.095Z,8.70
2019-04-04T07:42:56.491Z,8.80
2019-04-04T07:45:27.039Z,8.60
2019-04-04T07:47:57.530Z,8.70
2019-04-04T07:50:28.758Z,8.90
2019-04-04T07:53:04.053Z,9.00
2019-04-04T07:55:34.171Z,9.00
2019-04-04T07:58:15.537Z,9.20
2019-04-04T08:00:47.524Z,9.00
2019-04-04T08:03:20.419Z,9.10
2019-04-04T08:05:50.846Z,9.00
2019-04-04T08:08:21.266Z,9.00
2019-04-04T08:10:52.175Z,8.90
2019-04-04T08:13:27.963Z,9.00
2019-04-04T08:15:58.322Z,9.10
2019-04-04T08:18:28.852Z,9.10
2019-04-04T08:21:00.149Z,9.00
2019-04-04T08:23:33.164Z,9.20
2019-04-04T08:26:03.594Z,9.40
2019-04-04T08:28:33.963Z,9.60
2019-04-04T08:31:04.388Z,9.50
2019-04-04T08:33:35.972Z,9.40
2019-04-04T08:36:06.744Z,9.30
2019-04-04T08:38:37.290Z,9.40
2019-04-04T08:41:07.728Z,9.40
2019-04-04T08:43:38.130Z,9.30
2019-04-04T08:46:08.565Z,9.30
2019-04-04T08:48:38.984Z,9.30
2019-04-04T08:51:09.453Z,9.40
2019-04-04T08:53:40.593Z,9.40
2019-04-04T08:56:11.420Z,9.50
2019-04-04T08:58:41.813Z,9.50
2019-04-04T09:01:12.380Z,9.50
2019-04-04T09:03:44.491Z,9.60
2019-04-04T09:06:14.908Z,9.80
2019-04-04T09:08:45.380Z,9.80
2019-04-04T09:11:15.770Z,9.70
2019-04-04T09:13:46.141Z,9.90
2019-04-04T09:16:16.598Z,10.00
2019-04-04T09:18:47.000Z,10.20
2019-04-04T09:21:17.407Z,10.20
2019-04-04T09:23:47.806Z,9.90
2019-04-04T09:26:18.223Z,10.00
2019-04-04T09:28:48.641Z,10.10
2019-04-04T09:31:19.163Z,10.20
2019-04-04T09:33:49.556Z,10.40
2019-04-04T09:36:19.986Z,10.50
2019-04-04T09:38:50.368Z,10.50
2019-04-04T09:41:20.836Z,10.70
2019-04-04T09:43:51.364Z,10.40
2019-04-04T09:46:21.881Z,10.60
2019-04-04T09:48:52.302Z,10.50
2019-04-04T09:51:22.702Z,10.40
2019-04-04T09:53:53.623Z,10.50
2019-04-04T09:56:24.478Z,10.60
2019-04-04T09:58:55.221Z,10.90
2019-04-04T10:01:25.926Z,10.90
2019-04-04T10:03:56.373Z,10.90
2019-04-04T10:06:26.758Z,10.90
2019-04-04T10:08:57.226Z,10.90
2019-04-04T10:11:27.604Z,10.80
2019-04-04T10:13:58.061Z,10.80
2019-04-04T10:16:28.574Z,10.80
2019-04-04T10:18:58.974Z,10.80
2019-04-04T10:21:29.391Z,10.80
2019-04-04T10:23:59.780Z,10.70
2019-04-04T10:26:30.181Z,10.70
2019-04-04T10:29:00.603Z,10.80
2019-04-04T10:31:31.471Z,10.80
2019-04-04T10:34:03.033Z,10.80
2019-04-04T10:36:37.912Z,10.90
2019-04-04T10:39:12.891Z,11.00
2019-04-04T10:41:45.429Z,11.00
2019-04-04T10:44:15.520Z,11.00
2019-04-04T10:46:45.987Z,11.20
2019-04-04T10:49:16.343Z,11.10
2019-04-04T10:51:47.940Z,11.00
2019-04-04T10:54:18.313Z,11.00
2019-04-04T10:56:48.781Z,11.00
2019-04-04T10:59:19.235Z,11.10
2019-04-04T11:01:49.668Z,11.10
2019-04-04T11:04:21.779Z,10.80
2019-04-04T11:06:52.169Z,10.70
2019-04-04T11:09:25.417Z,10.60
2019-04-04T11:11:55.860Z,10.80
2019-04-04T11:14:26.354Z,10.80
2019-04-04T11:16:56.831Z,10.80
2019-04-04T11:19:31.465Z,11.00
2019-04-04T11:21:59.348Z,11.20
2019-04-04T11:24:34.508Z,11.10
2019-04-04T11:27:07.878Z,11.10
2019-04-04T11:29:38.257Z,11.00
2019-04-04T11:32:08.837Z,11.00
2019-04-04T11:34:39.254Z,11.20
2019-04-04T11:37:13.744Z,11.30
2019-04-04T11:39:54.050Z,11.30
2019-04-04T11:42:16.273Z,11.50
2019-04-04T11:44:46.843Z,11.50
2019-04-04T11:47:17.334Z,11.30
2019-04-04T11:49:47.978Z,11.20
2019-04-04T11:52:18.509Z,11.20
2019-04-04T11:55:01.095Z,10.90
2019-04-04T11:57:31.909Z,11.10
2019-04-04T12:00:03.842Z,11.10
2019-04-04T12:02:37.487Z,11.10
2019-04-04T12:05:09.092Z,11.20
2019-04-04T12:07:39.521Z,11.50
2019-04-04T12:10:10.303Z,11.40
2019-04-04T12:12:40.786Z,11.50
2019-04-04T12:15:11.467Z,11.60
2019-04-04T12:17:41.979Z,11.70
2019-04-04T12:20:13.051Z,11.50
2019-04-04T12:22:45.000Z,11.60
2019-04-04T12:25:15.596Z,11.60
2019-04-04T12:27:49.076Z,11.60
2019-04-04T12:30:20.886Z,11.50
2019-04-04T12:32:51.568Z,11.60
2019-04-04T12:35:21.970Z,11.80
2019-04-04T12:37:52.430Z,11.90
2019-04-04T12:40:27.152Z,11.90
2019-04-04T12:43:03.263Z,11.80
2019-04-04T12:45:33.672Z,11.50
2019-04-04T12:48:04.174Z,11.60
2019-04-04T12:50:34.604Z,11.60
2019-04-04T12:53:10.276Z,11.70
2019-04-04T12:55:40.703Z,11.50
2019-04-04T12:58:11.106Z,11.40
2019-04-04T13:00:43.063Z,11.40
2019-04-04T13:03:15.090Z,11.30
2019-04-04T13:05:45.501Z,11.40
2019-04-04T13:08:15.913Z,11.40
2019-04-04T13:10:51.888Z,11.40
2019-04-04T13:13:22.369Z,11.50
2019-04-04T13:15:52.817Z,11.60
2019-04-04T13:18:23.278Z,11.60
2019-04-04T13:20:53.709Z,11.60
2019-04-04T13:23:24.093Z,11.70
2019-04-04T13:25:54.562Z,11.80
2019-04-04T13:28:26.564Z,11.80
2019-04-04T13:30:56.988Z,11.80
2019-04-04T13:33:28.787Z,11.80
2019-04-04T13:35:59.267Z,11.80
2019-04-04T13:38:29.754Z,11.80
2019-04-04T13:41:00.182Z,11.60
2019-04-04T13:43:30.630Z,11.60
2019-04-04T13:46:01.050Z,11.50
2019-04-04T13:48:31.594Z,11.50
2019-04-04T13:51:03.731Z,11.40
2019-04-04T13:53:34.157Z,11.50
2019-04-04T13:56:06.073Z,11.60
2019-04-04T13:58:39.564Z,11.60
2019-04-04T14:01:09.905Z,11.50
2019-04-04T14:03:40.355Z,11.70
2019-04-04T14:06:11.623Z,11.70
2019-04-04T14:08:42.533Z,11.80
2019-04-04T14:11:13.037Z,11.70
2019-04-04T14:13:48.695Z,11.70
2019-04-04T14:16:18.171Z,11.70
2019-04-04T14:18:48.695Z,11.60
2019-04-04T14:21:25.170Z,11.60
2019-04-04T14:23:57.036Z,11.50
2019-04-04T14:26:29.289Z,11.50
2019-04-04T14:29:03.633Z,11.40
2019-04-04T14:31:34.981Z,11.30
2019-04-04T14:34:06.664Z,11.20
2019-04-04T14:36:37.122Z,11.10
2019-04-04T14:39:09.632Z,11.00
2019-04-04T14:41:40.245Z,11.00
2019-04-04T14:44:15.497Z,11.00
2019-04-04T14:46:45.601Z,10.80
2019-04-04T14:49:16.416Z,10.80
2019-04-04T14:51:46.975Z,10.70
2019-04-04T14:54:17.383Z,10.70
2019-04-04T14:56:47.964Z,10.70
2019-04-04T14:59:18.393Z,10.80
2019-04-04T15:01:48.905Z,10.80
2019-04-04T15:04:20.297Z,10.80
2019-04-04T15:06:50.825Z,10.90
2019-04-04T15:09:21.205Z,10.80
2019-04-04T15:11:51.750Z,10.80
2019-04-04T15:14:22.152Z,10.70
2019-04-04T15:16:59.420Z,10.60
2019-04-04T15:19:29.888Z,10.50
2019-04-04T15:22:04.270Z,10.40
2019-04-04T15:24:34.669Z,10.40
2019-04-04T15:27:06.327Z,10.30
2019-04-04T15:29:36.739Z,10.30
2019-04-04T15:32:07.156Z,10.20
2019-04-04T15:34:37.773Z,10.20
2019-04-04T15:37:08.330Z,10.10
2019-04-04T15:39:38.805Z,10.10
2019-04-04T15:42:09.250Z,10.00
2019-04-04T15:44:39.631Z,9.90
2019-04-04T15:47:10.156Z,9.80
2019-04-04T15:49:40.696Z,9.70
2019-04-04T15:52:11.122Z,9.70
2019-04-04T15:54:41.665Z,9.50
2019-04-04T15:57:12.081Z,9.40
2019-04-04T15:59:42.521Z,9.20
2019-04-04T16:02:13.089Z,9.10
2019-04-04T16:04:44.615Z,9.10
2019-04-04T16:07:15.047Z,8.90
2019-04-04T16:09:45.445Z,8.90
2019-04-04T16:12:15.871Z,8.90
2019-04-04T16:14:46.378Z,8.80
2019-04-04T16:17:16.843Z,8.80
2019-04-04T16:19:47.319Z,8.70
2019-04-04T16:22:17.955Z,8.60
2019-04-04T16:24:49.166Z,8.50
2019-04-04T16:27:19.780Z,8.50
2019-04-04T16:29:50.481Z,8.50
2019-04-04T16:32:24.593Z,8.30
2019-04-04T16:34:55.561Z,8.20
2019-04-04T16:37:26.171Z,8.10
2019-04-04T16:40:08.286Z,8.00
2019-04-04T16:42:28.683Z,7.90
2019-04-04T16:45:03.517Z,7.80
2019-04-04T16:47:33.939Z,7.70
2019-04-04T16:50:06.631Z,7.70
2019-04-04T16:52:37.041Z,7.60
2019-04-04T16:55:08.799Z,7.50
2019-04-04T16:57:39.153Z,7.50
2019-04-04T17:00:12.349Z,7.40
2019-04-04T17:02:42.797Z,7.40
2019-04-04T17:05:13.753Z,7.30
2019-04-04T17:07:44.156Z,7.30
2019-04-04T17:10:14.939Z,7.30
2019-04-04T17:12:45.334Z,7.30
2019-04-04T17:15:16.906Z,7.30
2019-04-04T17:17:47.324Z,7.20
2019-04-04T17:20:20.981Z,7.10
2019-04-04T17:22:52.953Z,7.10
2019-04-04T17:25:23.725Z,7.00
2019-04-04T17:27:54.165Z,6.90
2019-04-04T17:30:24.669Z,7.00
2019-04-04T17:32:55.524Z,6.90
2019-04-04T17:35:26.798Z,6.80
2019-04-04T17:37:57.727Z,6.80
2019-04-04T17:40:28.461Z,6.70
2019-04-04T17:42:58.925Z,6.60
2019-04-04T17:45:29.470Z,6.50
2019-04-04T17:48:00.300Z,6.50
2019-04-04T17:50:33.405Z,6.40
2019-04-04T17:53:04.177Z,6.40
2019-04-04T17:55:35.618Z,6.50
2019-04-04T17:58:13.796Z,6.40
2019-04-04T18:00:45.680Z,6.40
2019-04-04T18:03:16.135Z,6.30
2019-04-04T18:05:46.739Z,6.20
2019-04-04T18:08:25.035Z,6.10
2019-04-04T18:10:55.713Z,6.00
2019-04-04T18:13:26.108Z,5.90
2019-04-04T18:15:57.701Z,5.80
2019-04-04T18:18:28.276Z,5.80
2019-04-04T18:20:58.864Z,5.70
2019-04-04T18:23:29.351Z,5.60
2019-04-04T18:26:02.928Z,5.50
2019-04-04T18:28:33.370Z,5.50
2019-04-04T18:31:03.820Z,5.40
2019-04-04T18:33:34.435Z,5.30
2019-04-04T18:36:04.989Z,5.20
2019-04-04T18:38:38.211Z,5.20
2019-04-04T18:41:11.178Z,5.20
2019-04-04T18:43:41.571Z,5.20
2019-04-04T18:46:13.709Z,5.50
2019-04-04T18:48:47.274Z,6.00
2019-04-04T18:51:18.438Z,6.10
2019-04-04T18:53:48.825Z,6.00
2019-04-04T18:56:19.240Z,5.90
2019-04-04T18:58:49.675Z,5.90
2019-04-04T19:01:20.070Z,5.70
2019-04-04T19:03:50.536Z,5.50
2019-04-04T19:06:20.836Z,5.30
2019-04-04T19:08:51.275Z,5.20
2019-04-04T19:11:21.657Z,5.10
2019-04-04T19:13:52.012Z,5.00
2019-04-04T19:16:22.494Z,4.80
2019-04-04T19:18:53.003Z,4.70
2019-04-04T19:21:25.077Z,4.60
2019-04-04T19:23:56.969Z,4.60
2019-04-04T19:26:27.401Z,4.60
2019-04-04T19:28:57.779Z,4.50
2019-04-04T19:31:28.442Z,4.50
2019-04-04T19:33:58.880Z,4.40
2019-04-04T19:36:29.509Z,4.40
2019-04-04T19:38:59.940Z,4.40
2019-04-04T19:41:30.383Z,4.30
2019-04-04T19:44:00.776Z,4.30
2019-04-04T19:46:37.339Z,4.20
2019-04-04T19:49:05.226Z,4.10
2019-04-04T19:51:35.601Z,4.00
2019-04-04T19:54:06.012Z,4.00
2019-04-04T19:56:36.459Z,3.90
2019-04-04T19:59:06.819Z,3.90
2019-04-04T20:01:37.285Z,3.80
2019-04-04T20:04:07.699Z,3.80
2019-04-04T20:06:38.111Z,4.20
2019-04-04T20:09:08.651Z,4.40
2019-04-04T20:11:39.023Z,4.40
2019-04-04T20:14:09.406Z,4.20
2019-04-04T20:16:39.851Z,4.30
2019-04-04T20:19:10.245Z,4.10
2019-04-04T20:21:40.666Z,4.00
2019-04-04T20:24:11.075Z,4.00
2019-04-04T20:26:41.472Z,4.10
2019-04-04T20:29:11.886Z,4.10
2019-04-04T20:31:43.238Z,4.00
2019-04-04T20:34:13.679Z,3.80
2019-04-04T20:36:44.122Z,3.50
2019-04-04T20:39:14.625Z,3.30
2019-04-04T20:41:45.012Z,3.20
2019-04-04T20:44:15.447Z,3.10
2019-04-04T20:46:45.830Z,3.00
2019-04-04T20:49:16.250Z,3.00
2019-04-04T20:51:46.640Z,2.90
2019-04-04T20:54:17.059Z,2.90
2019-04-04T20:56:47.459Z,3.00
2019-04-04T20:59:17.885Z,3.00
2019-04-04T21:01:48.265Z,3.00
2019-04-04T21:04:18.727Z,2.90
2019-04-04T21:06:49.144Z,2.80
2019-04-04T21:09:19.541Z,2.80
2019-04-04T21:11:49.957Z,2.80
2019-04-04T21:14:20.407Z,2.90
2019-04-04T21:16:50.868Z,2.90
2019-04-04T21:19:21.267Z,3.00
2019-04-04T21:21:51.661Z,2.80
2019-04-04T21:24:22.146Z,2.80
2019-04-04T21:26:52.529Z,2.90
2019-04-04T21:29:22.914Z,3.00
2019-04-04T21:31:53.416Z,3.00
2019-04-04T21:34:23.854Z,3.10
2019-04-04T21:36:54.395Z,3.10
2019-04-04T21:39:24.773Z,3.00
2019-04-04T21:41:55.208Z,2.80
2019-04-04T21:44:25.553Z,2.60
2019-04-04T21:46:55.999Z,2.40
2019-04-04T21:49:29.612Z,2.30
2019-04-04T21:51:59.955Z,2.20
2019-04-04T21:54:30.305Z,2.10
2019-04-04T21:57:00.698Z,2.10
2019-04-04T21:59:31.125Z,2.10
2019-04-04T22:02:02.883Z,2.30
2019-04-04T22:04:33.331Z,2.20
2019-04-04T22:07:03.832Z,2.10
2019-04-04T22:09:34.197Z,2.10
2019-04-04T22:12:04.799Z,2.10
2019-04-04T22:14:35.147Z,2.00
2019-04-04T22:17:05.545Z,1.90
2019-04-04T22:19:35.947Z,1.90
2019-04-04T22:22:06.335Z,1.90
2019-04-04T22:24:36.724Z,2.00
2019-04-04T22:27:07.194Z,2.10
2019-04-04T22:29:37.559Z,2.10
2019-04-04T22:32:07.940Z,2.00
2019-04-04T22:34:38.332Z,1.90
2019-04-04T22:37:08.841Z,1.80
2019-04-04T22:39:39.235Z,1.70
2019-04-04T22:42:09.688Z,1.60
2019-04-04T22:44:40.014Z,1.60
2019-04-04T22:47:10.420Z,1.60
2019-04-04T22:49:40.829Z,1.60
2019-04-04T22:52:11.215Z,1.60
2019-04-04T22:54:41.645Z,1.50
2019-04-04T22:57:12.171Z,1.60
2019-04-04T22:59:42.729Z,1.60
2019-04-04T23:02:13.156Z,1.50
2019-04-04T23:04:43.617Z,1.30
2019-04-04T23:07:14.024Z,1.20
2019-04-04T23:09:44.446Z,1.10
2019-04-04T23:12:14.834Z,1.10
2019-04-04T23:14:48.385Z,1.00
2019-04-04T23:17:17.274Z,1.10
2019-04-04T23:19:47.748Z,1.20
2019-04-04T23:22:18.179Z,1.10
2019-04-04T23:24:48.609Z,1.10
2019-04-04T23:27:19.078Z,1.00
2019-04-04T23:29:49.436Z,1.00
2019-04-04T23:32:19.885Z,1.00
2019-04-04T23:34:50.247Z,1.00
2019-04-04T23:37:20.712Z,1.00
2019-04-04T23:39:51.169Z,1.20
2019-04-04T23:42:21.567Z,1.10
2019-04-04T23:45:00.866Z,1.00
2019-04-04T23:47:24.007Z,0.90
2019-04-04T23:49:58.378Z,0.80
2019-04-04T23:52:28.775Z,0.70
2019-04-04T23:54:59.205Z,0.80
2019-04-04T23:57:29.598Z,0.70
2019-04-04T23:59:59.983Z,0.50
